Wetterdaten: Woche 28.03.05 - 03.04.05 (KW13)
Datum Zeit Temperatur Luftfeuchte Luftdruck Niederschlag Wind Richtung Sonne Solar Taupunkt Windchill
28.03.2005 00:00 9.4 C 100 % 1011.0 hPa 0.0 l/m 1.5 km/h (1 Bft) O-SO 0.00 h 0 W/m 9.4 C 9.3 C
28.03.2005 01:00 9.0 C 100 % 1011.1 hPa 0.0 l/m 4.6 km/h (1 Bft) O-SO 0.00 h 0 W/m 9.0 C 8.7 C
28.03.2005 02:00 8.3 C 100 % 1011.8 hPa 0.0 l/m 5.5 km/h (1 Bft) O-SO 0.00 h 0 W/m 8.3 C 7.6 C
28.03.2005 03:00 8.4 C 100 % 1012.2 hPa 0.0 l/m 2.0 km/h (1 Bft) O-SO 0.00 h 0 W/m 8.4 C 8.2 C
28.03.2005 04:00 8.0 C 100 % 1012.2 hPa 0.0 l/m 2.9 km/h (1 Bft) O-SO 0.00 h 0 W/m 8.0 C 7.7 C
28.03.2005 05:00 8.2 C 100 % 1012.2 hPa 0.0 l/m 4.6 km/h (1 Bft) O-SO 0.00 h 0 W/m 8.2 C 7.8 C
28.03.2005 06:00 8.4 C 100 % 1012.2 hPa 0.0 l/m 5.3 km/h (1 Bft) O-SO 0.00 h 0 W/m 8.4 C 7.9 C
28.03.2005 07:00 8.5 C 100 % 1013.1 hPa 0.0 l/m 4.7 km/h (1 Bft) O-SO 0.00 h 14 W/m 8.5 C 8.1 C
28.03.2005 08:00 9.1 C 100 % 1013.1 hPa 0.0 l/m 1.8 km/h (1 Bft) O-SO 0.00 h 64 W/m 9.1 C 8.9 C
28.03.2005 09:00 10.6 C 94 % 1012.9 hPa 0.0 l/m 1.7 km/h (1 Bft) SO 0.50 h 300 W/m 9.6 C 10.6 C
28.03.2005 10:00 12.3 C 82 % 1013.1 hPa 0.0 l/m 4.4 km/h (1 Bft) SO 0.88 h 492 W/m 9.3 C 12.3 C
28.03.2005 11:00 12.7 C 78 % 1013.7 hPa 0.0 l/m 0.6 km/h (0 Bft) SO 0.20 h 262 W/m 8.9 C 12.7 C
28.03.2005 12:00 14.1 C 71 % 1013.4 hPa 0.0 l/m 2.8 km/h (1 Bft) W 0.33 h 339 W/m 8.8 C 14.1 C
28.03.2005 13:00 14.4 C 66 % 1013.0 hPa 0.0 l/m 0.9 km/h (0 Bft) W 0.00 h 259 W/m 8.2 C 14.4 C
28.03.2005 14:00 15.3 C 60 % 1012.3 hPa 0.0 l/m 13.7 km/h (3 Bft) W-NW 0.45 h 487 W/m 7.5 C 15.3 C
28.03.2005 15:00 14.7 C 58 % 1012.4 hPa 0.0 l/m 2.2 km/h (1 Bft) S-SO 0.27 h 341 W/m 6.6 C 14.7 C
28.03.2005 16:00 16.7 C 51 % 1012.1 hPa 0.0 l/m 10.4 km/h (2 Bft) W-NW 0.33 h 345 W/m 6.6 C 16.7 C
28.03.2005 17:00 15.1 C 58 % 1012.3 hPa 0.0 l/m 14.3 km/h (3 Bft) W-NW 0.00 h 150 W/m 6.9 C 15.1 C
28.03.2005 18:00 15.2 C 60 % 1012.3 hPa 0.0 l/m 11.0 km/h (2 Bft) W-NW 0.77 h 183 W/m 7.5 C 15.2 C
28.03.2005 19:00 13.5 C 68 % 1012.5 hPa 0.0 l/m 4.4 km/h (1 Bft) W-NW 0.00 h 26 W/m 7.6 C 13.5 C
28.03.2005 20:00 12.0 C 75 % 1013.1 hPa 0.0 l/m 2.1 km/h (1 Bft) SO 0.00 h 0 W/m 7.7 C 12.0 C
28.03.2005 21:00 11.5 C 79 % 1013.9 hPa 0.0 l/m 0.8 km/h (0 Bft) O-SO 0.00 h 0 W/m 7.9 C 11.5 C
28.03.2005 22:00 10.5 C 84 % 1014.0 hPa 0.0 l/m 0.0 km/h (0 Bft) N 0.00 h 0 W/m 7.9 C 10.5 C
28.03.2005 23:00 10.2 C 87 % 1014.0 hPa 0.0 l/m 0.4 km/h (0 Bft) O-SO 0.00 h 0 W/m 8.1 C 10.2 C
29.03.2005 00:00 9.9 C 87 % 1014.8 hPa 0.0 l/m 0.0 km/h (0 Bft) N 0.00 h 0 W/m 7.9 C 9.9 C
29.03.2005 01:00 9.4 C 90 % 1014.9 hPa 0.0 l/m 0.9 km/h (0 Bft) O-SO 0.00 h 0 W/m 7.8 C 9.4 C
29.03.2005 02:00 8.9 C 95 % 1014.6 hPa 0.0 l/m 0.1 km/h (0 Bft) N 0.00 h 0 W/m 8.1 C 8.9 C
29.03.2005 03:00 9.1 C 95 % 1014.2 hPa 0.0 l/m 0.0 km/h (0 Bft) N 0.00 h 0 W/m 8.2 C 9.1 C
29.03.2005 04:00 8.3 C 96 % 1014.3 hPa 0.0 l/m 0.0 km/h (0 Bft) N 0.00 h 0 W/m 7.7 C 8.3 C
29.03.2005 05:00 7.6 C 100 % 1014.4 hPa 0.0 l/m 0.0 km/h (0 Bft) N 0.00 h 0 W/m 7.5 C 7.6 C
29.03.2005 06:00 7.5 C 100 % 1014.4 hPa 0.0 l/m 0.0 km/h (0 Bft) N 0.00 h 0 W/m 7.5 C 7.5 C
29.03.2005 07:00 7.4 C 100 % 1014.4 hPa 0.0 l/m 0.0 km/h (0 Bft) N 0.00 h 20 W/m 7.4 C 7.4 C
29.03.2005 08:00 8.6 C 98 % 1014.2 hPa 0.0 l/m 0.0 km/h (0 Bft) N 0.07 h 98 W/m 8.3 C 8.6 C
29.03.2005 09:00 9.8 C 90 % 1014.1 hPa 0.0 l/m 0.2 km/h (0 Bft) W-NW 0.47 h 266 W/m 8.3 C 9.8 C
29.03.2005 10:00 11.6 C 78 % 1013.8 hPa 0.0 l/m 1.0 km/h (0 Bft) W-NW 1.00 h 509 W/m 7.9 C 11.6 C
29.03.2005 11:00 13.5 C 67 % 1013.6 hPa 0.0 l/m 1.2 km/h (1 Bft) W-NW 0.97 h 555 W/m 7.5 C 13.5 C
29.03.2005 12:00 15.4 C 57 % 1012.6 hPa 0.0 l/m 1.7 km/h (1 Bft) W-NW 1.00 h 607 W/m 6.9 C 15.4 C
29.03.2005 13:00 16.5 C 51 % 1012.1 hPa 0.0 l/m 2.8 km/h (1 Bft) W-NW 0.90 h 573 W/m 6.2 C 16.5 C
29.03.2005 14:00 18.0 C 50 % 1011.5 hPa 0.0 l/m 3.1 km/h (1 Bft) O-SO 0.87 h 496 W/m 7.6 C 18.0 C
29.03.2005 15:00 18.8 C 48 % 1010.8 hPa 0.0 l/m 7.1 km/h (2 Bft) O-SO 0.93 h 467 W/m 7.5 C 18.8 C
29.03.2005 16:00 18.2 C 46 % 1010.9 hPa 0.0 l/m 4.8 km/h (1 Bft) W-NW 0.40 h 269 W/m 6.3 C 18.2 C
29.03.2005 17:00 16.3 C 52 % 1011.0 hPa 0.0 l/m 10.9 km/h (2 Bft) W-NW 0.37 h 188 W/m 6.6 C 16.3 C
29.03.2005 18:00 15.9 C 52 % 1011.2 hPa 0.0 l/m 1.4 km/h (1 Bft) O-SO 0.00 h 81 W/m 6.2 C 15.9 C
29.03.2005 19:00 13.6 C 67 % 1011.9 hPa 0.6 l/m 10.2 km/h (2 Bft) NW 0.00 h 10 W/m 7.3 C 13.6 C
29.03.2005 20:00 10.6 C 91 % 1012.9 hPa 0.6 l/m 1.3 km/h (1 Bft) O-SO 0.00 h 0 W/m 9.3 C 10.6 C
29.03.2005 21:00 10.6 C 95 % 1013.3 hPa 0.0 l/m 0.8 km/h (0 Bft) O-SO 0.00 h 0 W/m 9.8 C 10.6 C
29.03.2005 22:00 10.6 C 97 % 1014.0 hPa 0.0 l/m 0.3 km/h (0 Bft) O 0.00 h 0 W/m 10.2 C 10.6 C
29.03.2005 23:00 10.3 C 99 % 1014.0 hPa 0.0 l/m 0.3 km/h (0 Bft) O-SO 0.00 h 0 W/m 10.2 C 10.3 C
30.03.2005 00:00 10.2 C 100 % 1014.0 hPa 0.0 l/m 0.9 km/h (0 Bft) O-SO 0.00 h 0 W/m 10.2 C 10.2 C
30.03.2005 01:00 10.2 C 100 % 1014.0 hPa 0.6 l/m 0.0 km/h (0 Bft) N 0.00 h 0 W/m 10.2 C 10.2 C
30.03.2005 02:00 9.9 C 100 % 1014.1 hPa 0.0 l/m 0.0 km/h (0 Bft) N 0.00 h 0 W/m 9.9 C 9.9 C
30.03.2005 03:00 9.9 C 100 % 1014.1 hPa 1.5 l/m 0.4 km/h (0 Bft) O-SO 0.00 h 0 W/m 9.9 C 9.9 C
30.03.2005 04:00 9.8 C 100 % 1014.1 hPa 0.0 l/m 1.3 km/h (1 Bft) O-SO 0.00 h 0 W/m 9.8 C 9.8 C
30.03.2005 05:00 9.8 C 100 % 1014.1 hPa 0.3 l/m 1.5 km/h (1 Bft) SO 0.00 h 0 W/m 9.8 C 9.7 C
30.03.2005 06:00 9.7 C 100 % 1014.1 hPa 0.6 l/m 0.7 km/h (0 Bft) SO 0.00 h 0 W/m 9.7 C 9.7 C
30.03.2005 07:00 9.7 C 100 % 1014.1 hPa 0.0 l/m 5.2 km/h (1 Bft) SO 0.00 h 12 W/m 9.7 C 9.2 C
30.03.2005 08:00 10.0 C 98 % 1015.0 hPa 0.3 l/m 4.8 km/h (1 Bft) W-NW 0.00 h 65 W/m 9.8 C 9.6 C
30.03.2005 09:00 10.9 C 90 % 1015.0 hPa 0.0 l/m 5.2 km/h (1 Bft) W-NW 0.07 h 176 W/m 9.3 C 10.9 C
30.03.2005 10:00 10.7 C 83 % 1015.0 hPa 0.0 l/m 19.6 km/h (3 Bft) NW 0.00 h 126 W/m 7.8 C 10.7 C
30.03.2005 11:00 11.2 C 76 % 1015.3 hPa 0.0 l/m 24.9 km/h (4 Bft) NW 0.37 h 370 W/m 7.0 C 11.2 C
30.03.2005 12:00 11.8 C 69 % 1015.8 hPa 0.0 l/m 19.9 km/h (4 Bft) NW 0.33 h 407 W/m 6.3 C 11.8 C
30.03.2005 13:00 13.0 C 65 % 1015.5 hPa 0.0 l/m 15.8 km/h (3 Bft) NW 0.85 h 538 W/m 6.5 C 13.0 C
30.03.2005 14:00 13.4 C 58 % 1014.6 hPa 0.0 l/m 15.7 km/h (3 Bft) NW 0.90 h 566 W/m 5.4 C 13.4 C
30.03.2005 15:00 14.3 C 53 % 1014.5 hPa 0.0 l/m 15.4 km/h (3 Bft) NW 0.78 h 549 W/m 4.9 C 14.3 C
30.03.2005 16:00 14.7 C 49 % 1014.5 hPa 0.0 l/m 16.5 km/h (3 Bft) W-NW 0.62 h 448 W/m 4.2 C 14.7 C
30.03.2005 17:00 14.4 C 48 % 1014.5 hPa 0.0 l/m 13.9 km/h (3 Bft) W-NW 0.33 h 263 W/m 3.5 C 14.4 C
30.03.2005 18:00 13.7 C 51 % 1015.3 hPa 0.0 l/m 12.6 km/h (3 Bft) W-NW 0.07 h 110 W/m 3.7 C 13.7 C
30.03.2005 19:00 12.6 C 60 % 1015.9 hPa 0.0 l/m 6.5 km/h (2 Bft) W-NW 0.00 h 32 W/m 5.0 C 12.6 C
30.03.2005 20:00 10.5 C 70 % 1017.1 hPa 0.0 l/m 4.3 km/h (1 Bft) O-SO 0.00 h 0 W/m 5.3 C 10.4 C
30.03.2005 21:00 9.0 C 80 % 1018.2 hPa 0.0 l/m 1.3 km/h (1 Bft) O-SO 0.00 h 0 W/m 5.6 C 8.8 C
30.03.2005 22:00 7.5 C 87 % 1018.5 hPa 0.0 l/m 3.5 km/h (1 Bft) O-SO 0.00 h 0 W/m 5.5 C 7.1 C
30.03.2005 23:00 6.3 C 94 % 1018.8 hPa 0.0 l/m 3.6 km/h (1 Bft) O-SO 0.00 h 0 W/m 5.4 C 5.9 C
31.03.2005 00:00 5.6 C 97 % 1019.9 hPa 0.0 l/m 1.8 km/h (1 Bft) O-SO 0.00 h 0 W/m 5.2 C 5.4 C
31.03.2005 01:00 4.7 C 99 % 1020.0 hPa 0.0 l/m 0.1 km/h (0 Bft) O-NO 0.00 h 0 W/m 4.6 C 4.7 C
31.03.2005 02:00 4.2 C 100 % 1020.1 hPa 0.0 l/m 1.1 km/h (1 Bft) O-NO 0.00 h 0 W/m 4.2 C 4.1 C
31.03.2005 03:00 3.8 C 100 % 1020.1 hPa 0.0 l/m 0.4 km/h (0 Bft) O-SO 0.00 h 0 W/m 3.7 C 3.7 C
31.03.2005 04:00 3.4 C 100 % 1020.2 hPa 0.0 l/m 0.0 km/h (0 Bft) N 0.00 h 0 W/m 3.4 C 3.4 C
31.03.2005 05:00 2.8 C 100 % 1020.3 hPa 0.0 l/m 0.3 km/h (0 Bft) O-NO 0.00 h 0 W/m 2.8 C 2.8 C
31.03.2005 06:00 3.4 C 100 % 1020.3 hPa 0.0 l/m 0.0 km/h (0 Bft) N 0.00 h 0 W/m 3.4 C 3.4 C
31.03.2005 07:00 4.1 C 100 % 1021.1 hPa 0.0 l/m 0.6 km/h (0 Bft) O-SO 0.00 h 19 W/m 4.1 C 4.1 C
31.03.2005 08:00 5.2 C 100 % 1020.9 hPa 0.0 l/m 0.6 km/h (0 Bft) O-SO 0.00 h 68 W/m 5.2 C 5.2 C
31.03.2005 09:00 6.4 C 96 % 1021.8 hPa 0.0 l/m 0.0 km/h (0 Bft) N 0.00 h 133 W/m 5.8 C 6.4 C
31.03.2005 10:00 7.9 C 84 % 1021.6 hPa 0.0 l/m 0.0 km/h (0 Bft) N 0.00 h 209 W/m 5.4 C 7.9 C
31.03.2005 11:00 9.3 C 77 % 1021.4 hPa 0.0 l/m 0.1 km/h (0 Bft) N 0.00 h 196 W/m 5.5 C 9.3 C
31.03.2005 12:00 11.8 C 68 % 1021.1 hPa 0.0 l/m 0.8 km/h (0 Bft) O-SO 0.60 h 532 W/m 6.1 C 11.8 C
31.03.2005 13:00 13.4 C 64 % 1020.8 hPa 0.0 l/m 8.3 km/h (2 Bft) O-SO 0.00 h 267 W/m 6.7 C 13.4 C
31.03.2005 14:00 13.8 C 64 % 1020.8 hPa 0.0 l/m 5.0 km/h (1 Bft) O-SO 0.03 h 204 W/m 7.0 C 13.8 C
31.03.2005 15:00 12.6 C 72 % 1021.0 hPa 0.0 l/m 12.3 km/h (3 Bft) O-SO 0.00 h 156 W/m 7.7 C 12.6 C
31.03.2005 16:00 13.5 C 68 % 1020.9 hPa 0.0 l/m 1.7 km/h (1 Bft) O-SO 0.03 h 257 W/m 7.8 C 13.5 C
31.03.2005 17:00 13.3 C 69 % 1020.9 hPa 0.0 l/m 1.7 km/h (1 Bft) O-SO 0.00 h 89 W/m 7.7 C 13.3 C
31.03.2005 18:00 12.6 C 74 % 1021.0 hPa 0.0 l/m 0.0 km/h (0 Bft) N 0.00 h 59 W/m 8.1 C 12.6 C
31.03.2005 19:00 11.3 C 87 % 1022.0 hPa 0.9 l/m 3.5 km/h (1 Bft) O-SO 0.00 h 9 W/m 9.1 C 11.3 C
31.03.2005 20:00 10.2 C 96 % 1022.3 hPa 0.0 l/m 2.5 km/h (1 Bft) O-SO 0.00 h 0 W/m 9.6 C 10.1 C
31.03.2005 21:00 9.7 C 98 % 1023.0 hPa 0.0 l/m 0.1 km/h (0 Bft) O-SO 0.00 h 0 W/m 9.4 C 9.7 C
31.03.2005 22:00 8.9 C 100 % 1023.6 hPa 0.0 l/m 0.0 km/h (0 Bft) N 0.00 h 0 W/m 8.8 C 8.9 C
31.03.2005 23:00 7.6 C 100 % 1023.7 hPa 0.0 l/m 0.0 km/h (0 Bft) N 0.00 h 0 W/m 7.6 C 7.6 C
01.04.2005 00:00 6.9 C 100 % 1023.8 hPa 0.0 l/m 0.0 km/h (0 Bft) N 0.00 h 0 W/m 6.9 C 6.9 C
01.04.2005 01:00 6.1 C 100 % 1023.9 hPa 0.3 l/m 0.0 km/h (0 Bft) N 0.00 h 0 W/m 6.1 C 6.1 C
01.04.2005 02:00 5.0 C 100 % 1024.1 hPa 0.0 l/m 0.7 km/h (0 Bft) O-SO 0.00 h 0 W/m 5.0 C 4.8 C
01.04.2005 03:00 4.1 C 100 % 1024.2 hPa 0.0 l/m 1.6 km/h (1 Bft) O 0.00 h 0 W/m 4.1 C 3.9 C
01.04.2005 04:00 3.7 C 100 % 1024.3 hPa 0.0 l/m 1.1 km/h (1 Bft) O-SO 0.00 h 0 W/m 3.7 C 3.5 C
01.04.2005 05:00 3.2 C 100 % 1024.4 hPa 0.0 l/m 0.7 km/h (0 Bft) O 0.00 h 0 W/m 3.2 C 3.2 C
01.04.2005 06:00 2.6 C 100 % 1024.7 hPa 0.0 l/m 0.0 km/h (0 Bft) N 0.00 h 0 W/m 2.6 C 2.6 C
01.04.2005 07:00 2.4 C 100 % 1025.5 hPa 0.0 l/m 0.0 km/h (0 Bft) N 0.20 h 39 W/m 2.4 C 2.4 C
01.04.2005 08:00 3.6 C 100 % 1025.3 hPa 0.0 l/m 0.0 km/h (0 Bft) N 1.00 h 196 W/m 3.6 C 3.6 C
01.04.2005 09:00 6.3 C 97 % 1025.0 hPa 0.0 l/m 1.2 km/h (1 Bft) SO 1.00 h 376 W/m 5.8 C 6.1 C
01.04.2005 10:00 9.2 C 77 % 1024.6 hPa 0.0 l/m 9.0 km/h (2 Bft) O-SO 1.00 h 522 W/m 5.1 C 8.1 C
01.04.2005 11:00 12.0 C 60 % 1024.2 hPa 0.0 l/m 8.1 km/h (2 Bft) O-SO 1.00 h 635 W/m 4.5 C 12.0 C
01.04.2005 12:00 13.8 C 49 % 1023.9 hPa 0.0 l/m 12.4 km/h (3 Bft) O 1.00 h 707 W/m 3.4 C 13.8 C
01.04.2005 13:00 14.7 C 48 % 1022.8 hPa 0.0 l/m 14.8 km/h (3 Bft) O-SO 1.00 h 740 W/m 3.7 C 14.7 C
01.04.2005 14:00 15.3 C 38 % 1022.7 hPa 0.0 l/m 13.0 km/h (3 Bft) O 1.00 h 715 W/m 1.0 C 15.3 C
01.04.2005 15:00 15.9 C 31 % 1022.4 hPa 0.0 l/m 19.8 km/h (3 Bft) O-SO 1.00 h 659 W/m -1.2 C 15.9 C
01.04.2005 16:00 15.9 C 33 % 1021.6 hPa 0.0 l/m 23.8 km/h (4 Bft) O-SO 1.00 h 548 W/m -0.5 C 15.9 C
01.04.2005 17:00 15.6 C 31 % 1021.6 hPa 0.0 l/m 14.8 km/h (3 Bft) O-NO 1.00 h 405 W/m -1.3 C 15.6 C
01.04.2005 18:00 14.7 C 32 % 1021.7 hPa 0.0 l/m 13.2 km/h (3 Bft) O-SO 1.00 h 239 W/m -1.6 C 14.7 C
01.04.2005 19:00 13.3 C 34 % 1021.9 hPa 0.0 l/m 9.5 km/h (2 Bft) O 0.77 h 68 W/m -2.2 C 13.3 C
01.04.2005 20:00 11.7 C 40 % 1022.1 hPa 0.0 l/m 1.1 km/h (1 Bft) N-NO 0.00 h 0 W/m -1.6 C 11.7 C
01.04.2005 21:00 10.4 C 41 % 1023.0 hPa 0.0 l/m 2.2 km/h (1 Bft) N-NO 0.00 h 0 W/m -2.2 C 10.4 C
01.04.2005 22:00 9.3 C 43 % 1023.5 hPa 0.0 l/m 1.6 km/h (1 Bft) NO 0.00 h 0 W/m -2.6 C 9.2 C
01.04.2005 23:00 7.7 C 49 % 1023.7 hPa 0.0 l/m 1.7 km/h (1 Bft) N-NO 0.00 h 0 W/m -2.3 C 7.6 C
02.04.2005 00:00 6.2 C 56 % 1023.9 hPa 0.0 l/m 0.3 km/h (0 Bft) N-NO 0.00 h 0 W/m -1.9 C 6.2 C
02.04.2005 01:00 4.9 C 64 % 1024.1 hPa 0.0 l/m 0.1 km/h (0 Bft) N 0.00 h 0 W/m -1.4 C 4.9 C
02.04.2005 02:00 3.3 C 74 % 1024.4 hPa 0.0 l/m 3.3 km/h (1 Bft) O-SO 0.00 h 0 W/m -0.9 C 2.4 C
02.04.2005 03:00 2.3 C 81 % 1024.5 hPa 0.0 l/m 0.0 km/h (0 Bft) N 0.00 h 0 W/m -0.7 C 2.3 C
02.04.2005 04:00 1.5 C 86 % 1024.6 hPa 0.0 l/m 0.2 km/h (0 Bft) NO 0.00 h 0 W/m -0.6 C 1.5 C
02.04.2005 05:00 1.2 C 87 % 1024.6 hPa 0.0 l/m 0.0 km/h (0 Bft) N 0.00 h 0 W/m -0.6 C 1.2 C
02.04.2005 06:00 0.6 C 91 % 1024.7 hPa 0.0 l/m 0.0 km/h (0 Bft) N 0.00 h 0 W/m -0.8 C 0.6 C
02.04.2005 07:00 0.8 C 91 % 1024.7 hPa 0.0 l/m 0.0 km/h (0 Bft) N 0.30 h 46 W/m -0.4 C 0.8 C
02.04.2005 08:00 2.5 C 82 % 1024.5 hPa 0.0 l/m 0.0 km/h (0 Bft) N 1.00 h 192 W/m -0.3 C 2.5 C
02.04.2005 09:00 5.1 C 70 % 1024.1 hPa 0.0 l/m 0.1 km/h (0 Bft) NW 1.00 h 371 W/m 0.1 C 5.1 C
02.04.2005 10:00 7.5 C 59 % 1023.7 hPa 0.0 l/m 0.8 km/h (0 Bft) NW 1.00 h 521 W/m 0.1 C 7.5 C
02.04.2005 11:00 10.0 C 54 % 1023.4 hPa 0.0 l/m 4.5 km/h (1 Bft) W-NW 1.00 h 636 W/m 1.1 C 9.9 C
02.04.2005 12:00 12.5 C 50 % 1022.0 hPa 0.0 l/m 7.7 km/h (2 Bft) W-NW 1.00 h 711 W/m 2.3 C 12.5 C
02.04.2005 13:00 15.1 C 45 % 1021.4 hPa 0.0 l/m 6.7 km/h (2 Bft) W-NW 1.02 h 724 W/m 3.3 C 15.1 C
02.04.2005 14:00 17.4 C 39 % 1020.3 hPa 0.0 l/m 5.9 km/h (2 Bft) W-NW 1.00 h 717 W/m 3.2 C 17.4 C
02.04.2005 15:00 18.8 C 34 % 1019.1 hPa 0.0 l/m 12.6 km/h (3 Bft) O-SO 1.00 h 666 W/m 2.4 C 18.8 C
02.04.2005 16:00 18.8 C 34 % 1019.1 hPa 0.0 l/m 15.8 km/h (3 Bft) O-SO 0.98 h 561 W/m 2.6 C 18.8 C
02.04.2005 17:00 18.4 C 28 % 1018.8 hPa 0.0 l/m 14.6 km/h (3 Bft) O-SO 1.02 h 401 W/m -0.8 C 18.4 C
02.04.2005 18:00 17.3 C 30 % 1019.3 hPa 0.0 l/m 8.9 km/h (2 Bft) O-SO 0.98 h 198 W/m -0.2 C 17.3 C
02.04.2005 19:00 15.5 C 31 % 1019.5 hPa 0.0 l/m 5.2 km/h (1 Bft) O-SO 0.80 h 60 W/m -1.6 C 15.5 C
02.04.2005 20:00 12.0 C 49 % 1020.0 hPa 0.0 l/m 3.5 km/h (1 Bft) O-SO 0.00 h 0 W/m 1.3 C 12.0 C
02.04.2005 21:00 9.5 C 61 % 1021.2 hPa 0.0 l/m 3.8 km/h (1 Bft) O-SO 0.00 h 0 W/m 2.3 C 9.3 C
02.04.2005 22:00 7.8 C 71 % 1022.0 hPa 0.0 l/m 0.9 km/h (0 Bft) W 0.00 h 0 W/m 2.8 C 7.8 C
02.04.2005 23:00 6.8 C 75 % 1022.8 hPa 0.0 l/m 1.4 km/h (1 Bft) O-SO 0.00 h 0 W/m 2.6 C 6.8 C
03.04.2005 00:00 6.0 C 79 % 1022.9 hPa 0.0 l/m 1.0 km/h (0 Bft) O-SO 0.00 h 0 W/m 2.6 C 5.9 C
03.04.2005 01:00 4.7 C 86 % 1023.2 hPa 0.0 l/m 2.3 km/h (1 Bft) O-SO 0.00 h 0 W/m 2.6 C 4.3 C
03.04.2005 02:00 4.3 C 89 % 1024.2 hPa 0.0 l/m 0.8 km/h (0 Bft) O-SO 0.00 h 0 W/m 2.6 C 4.1 C
03.04.2005 03:00 3.5 C 91 % 1024.3 hPa 0.0 l/m 0.2 km/h (0 Bft) NO 0.00 h 0 W/m 2.2 C 3.5 C
03.04.2005 04:00 2.4 C 95 % 1024.5 hPa 0.0 l/m 1.7 km/h (1 Bft) O-SO 0.00 h 0 W/m 1.7 C 2.3 C
03.04.2005 05:00 1.6 C 98 % 1024.6 hPa 0.0 l/m 1.0 km/h (0 Bft) O-NO 0.00 h 0 W/m 1.3 C 1.5 C
03.04.2005 06:00 1.3 C 100 % 1025.1 hPa 0.0 l/m 1.0 km/h (0 Bft) O-NO 0.00 h 0 W/m 1.2 C 1.1 C
03.04.2005 07:00 1.4 C 99 % 1025.7 hPa 0.0 l/m 0.0 km/h (0 Bft) N 0.17 h 43 W/m 1.2 C 1.4 C
03.04.2005 08:00 3.6 C 91 % 1025.9 hPa 0.0 l/m 0.0 km/h (0 Bft) N 1.00 h 195 W/m 2.2 C 3.6 C
03.04.2005 09:00 6.4 C 77 % 1026.0 hPa 0.0 l/m 0.0 km/h (0 Bft) N 0.93 h 360 W/m 2.6 C 6.4 C
03.04.2005 10:00 9.3 C 67 % 1025.6 hPa 0.0 l/m 1.1 km/h (1 Bft) O-SO 1.00 h 514 W/m 3.5 C 9.3 C
03.04.2005 11:00 13.1 C 55 % 1025.1 hPa 0.0 l/m 4.1 km/h (1 Bft) O-SO 1.00 h 631 W/m 4.2 C 13.1 C
03.04.2005 12:00 15.0 C 46 % 1024.2 hPa 0.0 l/m 3.4 km/h (1 Bft) W 1.00 h 707 W/m 3.4 C 15.0 C
03.04.2005 13:00 17.2 C 41 % 1023.5 hPa 0.0 l/m 6.4 km/h (2 Bft) O-SO 1.00 h 734 W/m 3.9 C 17.2 C
03.04.2005 14:00 19.2 C 39 % 1022.5 hPa 0.0 l/m 2.9 km/h (1 Bft) O-SO 1.00 h 719 W/m 5.0 C 19.2 C
03.04.2005 15:00 19.8 C 31 % 1022.1 hPa 0.0 l/m 4.1 km/h (1 Bft) O-SO 1.00 h 658 W/m 2.3 C 19.8 C
03.04.2005 16:00 19.6 C 22 % 1021.5 hPa 0.0 l/m 9.6 km/h (2 Bft) O-SO 1.00 h 548 W/m -2.7 C 19.6 C
03.04.2005 17:00 19.0 C 20 % 1021.2 hPa 0.0 l/m 8.0 km/h (2 Bft) O-SO 1.00 h 411 W/m -4.4 C 19.0 C
03.04.2005 18:00 17.9 C 21 % 1021.3 hPa 0.0 l/m 7.0 km/h (2 Bft) O-SO 1.00 h 251 W/m -4.6 C 17.9 C
03.04.2005 19:00 16.1 C 20 % 1021.5 hPa 0.0 l/m 4.3 km/h (1 Bft) O-SO 0.73 h 69 W/m -6.9 C 16.1 C
03.04.2005 20:00 12.5 C 44 % 1022.7 hPa 0.0 l/m 2.9 km/h (1 Bft) O-SO 0.00 h 0 W/m -0.0 C 12.5 C
03.04.2005 21:00 9.5 C 60 % 1023.9 hPa 0.0 l/m 1.9 km/h (1 Bft) O-SO 0.00 h 0 W/m 2.1 C 9.4 C
03.04.2005 22:00 7.6 C 69 % 1024.8 hPa 0.0 l/m 1.1 km/h (0 Bft) O-SO 0.00 h 0 W/m 2.2 C 7.4 C
03.04.2005 23:00 5.9 C 77 % 1025.3 hPa 0.0 l/m 0.7 km/h (0 Bft) O 0.00 h 0 W/m 2.1 C 5.9 C
Min-Datum _ 02.04.05 01.04.05 29.03.05 - 28.03.05 - - - 03.04.05 03.04.05
_ Min-Zeit 07:12 15:35 17:49 - 00:00 - - - 20:03 06:53
Minimum _ 0.2 C 20 % 1010.0 hPa - 0.0 km/h (0 Bft) - - - -8.1 C -0.2 C
Max-Datum _ 03.04.05 28.03.05 03.04.05 30.03.05 30.03.05 - 28.03.05 28.03.05 29.03.05 03.04.05
_ Max-Zeit 15:43 00:00 08:31 03:33 11:23 - 10:03 14:13 22:37 15:43
Maximum _ 20.5 C 100 % 1026.4 hPa 1.5 l/m 42.1 km/h
NW (6 Bft)
- 0.05 h 982 W/m 10.4 C 20.5 C
Durchschnitt _ 10.1 C 74 % 1018.9 hPa #5.7 l/m 4.2 km/h (1 Bft) O-SO #51:35 h 338 W/m 4.8 C 10.1 C

Durchschnitt Minimum Temp.9.5 C
Durchschnitt Maximum Temp.10.8 C
© Kaiko 2005